sensor_id;sensor_type;location;lat;lon;timestamp;temperature;humidity
39493;DHT22;25176;51.060;3.720;2023-03-14T00:00:15;12.20;99.90
39493;DHT22;25176;51.060;3.720;2023-03-14T00:02:41;12.20;99.80
39493;DHT22;25176;51.060;3.720;2023-03-14T00:05:07;12.10;99.90
39493;DHT22;25176;51.060;3.720;2023-03-14T00:07:34;12.10;99.90
39493;DHT22;25176;51.060;3.720;2023-03-14T00:10:02;12.10;99.90
39493;DHT22;25176;51.060;3.720;2023-03-14T00:12:29;12.00;99.90
39493;DHT22;25176;51.060;3.720;2023-03-14T00:14:55;12.00;99.90
39493;DHT22;25176;51.060;3.720;2023-03-14T00:17:20;12.00;99.90
39493;DHT22;25176;51.060;3.720;2023-03-14T00:19:46;11.90;99.90
39493;DHT22;25176;51.060;3.720;2023-03-14T00:22:12;11.90;99.90
39493;DHT22;25176;51.060;3.720;2023-03-14T00:24:37;12.00;99.90
39493;DHT22;25176;51.060;3.720;2023-03-14T00:27:03;12.00;99.90
39493;DHT22;25176;51.060;3.720;2023-03-14T00:29:28;12.00;99.90
39493;DHT22;25176;51.060;3.720;2023-03-14T00:31:54;12.00;99.90
39493;DHT22;25176;51.060;3.720;2023-03-14T00:34:19;12.00;99.90
39493;DHT22;25176;51.060;3.720;2023-03-14T00:36:45;12.00;99.90
39493;DHT22;25176;51.060;3.720;2023-03-14T00:39:10;12.00;99.90
39493;DHT22;25176;51.060;3.720;2023-03-14T00:41:36;12.00;99.90
39493;DHT22;25176;51.060;3.720;2023-03-14T00:44:02;11.90;99.90
39493;DHT22;25176;51.060;3.720;2023-03-14T00:46:27;11.90;99.90
39493;DHT22;25176;51.060;3.720;2023-03-14T00:48:53;11.90;99.90
39493;DHT22;25176;51.060;3.720;2023-03-14T00:51:18;11.80;99.90
39493;DHT22;25176;51.060;3.720;2023-03-14T00:53:44;11.90;99.90
39493;DHT22;25176;51.060;3.720;2023-03-14T00:56:11;11.80;99.90
39493;DHT22;25176;51.060;3.720;2023-03-14T00:58:38;11.80;99.90
39493;DHT22;25176;51.060;3.720;2023-03-14T01:01:08;11.80;99.90
39493;DHT22;25176;51.060;3.720;2023-03-14T01:03:34;11.80;99.90
39493;DHT22;25176;51.060;3.720;2023-03-14T01:06:11;11.80;99.90
39493;DHT22;25176;51.060;3.720;2023-03-14T01:08:37;11.80;99.90
39493;DHT22;25176;51.060;3.720;2023-03-14T01:11:11;11.80;99.90
39493;DHT22;25176;51.060;3.720;2023-03-14T01:13:38;11.80;99.90
39493;DHT22;25176;51.060;3.720;2023-03-14T01:16:05;11.80;99.90
39493;DHT22;25176;51.060;3.720;2023-03-14T01:18:32;11.90;99.90
39493;DHT22;25176;51.060;3.720;2023-03-14T01:20:58;11.90;99.90
39493;DHT22;25176;51.060;3.720;2023-03-14T01:23:24;11.90;99.90
39493;DHT22;25176;51.060;3.720;2023-03-14T01:25:49;11.90;99.90
39493;DHT22;25176;51.060;3.720;2023-03-14T01:28:15;11.80;99.90
39493;DHT22;25176;51.060;3.720;2023-03-14T01:30:41;11.70;99.90
39493;DHT22;25176;51.060;3.720;2023-03-14T01:33:07;11.80;99.90
39493;DHT22;25176;51.060;3.720;2023-03-14T01:35:33;11.80;99.90
39493;DHT22;25176;51.060;3.720;2023-03-14T01:37:58;11.70;99.90
39493;DHT22;25176;51.060;3.720;2023-03-14T01:40:24;11.70;99.90
39493;DHT22;25176;51.060;3.720;2023-03-14T01:42:57;11.70;99.90
39493;DHT22;25176;51.060;3.720;2023-03-14T01:48:28;11.60;99.90
39493;DHT22;25176;51.060;3.720;2023-03-14T01:50:56;11.60;99.90
39493;DHT22;25176;51.060;3.720;2023-03-14T01:53:23;11.80;99.90
39493;DHT22;25176;51.060;3.720;2023-03-14T01:55:50;11.80;99.90
39493;DHT22;25176;51.060;3.720;2023-03-14T01:58:18;11.80;99.90
39493;DHT22;25176;51.060;3.720;2023-03-14T02:00:45;11.80;99.90
39493;DHT22;25176;51.060;3.720;2023-03-14T02:03:15;11.80;99.90
39493;DHT22;25176;51.060;3.720;2023-03-14T02:05:42;11.80;99.90
39493;DHT22;25176;51.060;3.720;2023-03-14T02:08:11;11.80;99.90
39493;DHT22;25176;51.060;3.720;2023-03-14T02:10:41;11.80;99.90
39493;DHT22;25176;51.060;3.720;2023-03-14T02:13:08;11.70;99.90
39493;DHT22;25176;51.060;3.720;2023-03-14T02:15:34;11.70;99.90
39493;DHT22;25176;51.060;3.720;2023-03-14T02:18:02;11.80;99.90
39493;DHT22;25176;51.060;3.720;2023-03-14T02:22:59;11.80;99.90
39493;DHT22;25176;51.060;3.720;2023-03-14T02:25:42;11.70;99.90
39493;DHT22;25176;51.060;3.720;2023-03-14T02:28:09;11.70;99.90
39493;DHT22;25176;51.060;3.720;2023-03-14T02:30:36;11.70;99.90
39493;DHT22;25176;51.060;3.720;2023-03-14T02:33:13;11.60;99.90
39493;DHT22;25176;51.060;3.720;2023-03-14T02:35:56;11.70;99.90
39493;DHT22;25176;51.060;3.720;2023-03-14T02:38:36;11.70;99.90
39493;DHT22;25176;51.060;3.720;2023-03-14T02:41:03;11.70;99.90
39493;DHT22;25176;51.060;3.720;2023-03-14T02:43:28;11.60;99.90
39493;DHT22;25176;51.060;3.720;2023-03-14T02:45:54;11.60;99.90
39493;DHT22;25176;51.060;3.720;2023-03-14T02:48:29;11.60;99.90
39493;DHT22;25176;51.060;3.720;2023-03-14T02:50:59;11.50;99.90
39493;DHT22;25176;51.060;3.720;2023-03-14T02:53:27;11.40;99.90
39493;DHT22;25176;51.060;3.720;2023-03-14T02:55:54;11.40;99.90
39493;DHT22;25176;51.060;3.720;2023-03-14T02:58:20;11.40;99.90
39493;DHT22;25176;51.060;3.720;2023-03-14T03:00:46;11.50;99.90
39493;DHT22;25176;51.060;3.720;2023-03-14T03:03:12;11.50;99.90
39493;DHT22;25176;51.060;3.720;2023-03-14T03:05:38;11.50;99.90
39493;DHT22;25176;51.060;3.720;2023-03-14T03:08:04;11.50;99.90
39493;DHT22;25176;51.060;3.720;2023-03-14T03:10:30;11.50;99.90
39493;DHT22;25176;51.060;3.720;2023-03-14T03:12:56;11.50;99.90
39493;DHT22;25176;51.060;3.720;2023-03-14T03:15:22;11.50;99.90
39493;DHT22;25176;51.060;3.720;2023-03-14T03:17:48;11.60;99.90
39493;DHT22;25176;51.060;3.720;2023-03-14T03:20:14;11.60;99.90
39493;DHT22;25176;51.060;3.720;2023-03-14T03:22:39;11.60;99.90
39493;DHT22;25176;51.060;3.720;2023-03-14T03:25:06;11.60;99.90
39493;DHT22;25176;51.060;3.720;2023-03-14T03:27:36;11.70;99.90
39493;DHT22;25176;51.060;3.720;2023-03-14T03:30:03;11.60;99.90
39493;DHT22;25176;51.060;3.720;2023-03-14T03:32:29;11.60;99.90
39493;DHT22;25176;51.060;3.720;2023-03-14T03:34:54;11.60;99.90
39493;DHT22;25176;51.060;3.720;2023-03-14T03:37:20;11.60;99.90
39493;DHT22;25176;51.060;3.720;2023-03-14T03:39:45;11.50;99.90
39493;DHT22;25176;51.060;3.720;2023-03-14T03:42:11;11.60;99.90
39493;DHT22;25176;51.060;3.720;2023-03-14T03:44:37;11.60;99.90
39493;DHT22;25176;51.060;3.720;2023-03-14T03:47:03;11.60;99.90
39493;DHT22;25176;51.060;3.720;2023-03-14T03:49:30;11.70;99.90
39493;DHT22;25176;51.060;3.720;2023-03-14T03:51:56;11.60;99.90
39493;DHT22;25176;51.060;3.720;2023-03-14T03:54:21;11.60;99.90
39493;DHT22;25176;51.060;3.720;2023-03-14T03:56:47;11.60;99.90
39493;DHT22;25176;51.060;3.720;2023-03-14T03:59:12;11.70;99.90
39493;DHT22;25176;51.060;3.720;2023-03-14T04:01:38;11.70;99.90
39493;DHT22;25176;51.060;3.720;2023-03-14T04:04:03;11.70;99.90
39493;DHT22;25176;51.060;3.720;2023-03-14T04:06:29;11.60;99.90
39493;DHT22;25176;51.060;3.720;2023-03-14T04:08:55;11.70;99.90
39493;DHT22;25176;51.060;3.720;2023-03-14T04:11:20;11.70;99.90
39493;DHT22;25176;51.060;3.720;2023-03-14T04:13:46;11.70;99.90
39493;DHT22;25176;51.060;3.720;2023-03-14T04:16:16;11.70;99.90
39493;DHT22;25176;51.060;3.720;2023-03-14T04:18:42;11.60;99.90
39493;DHT22;25176;51.060;3.720;2023-03-14T04:21:07;11.60;99.90
39493;DHT22;25176;51.060;3.720;2023-03-14T04:23:33;11.60;99.90
39493;DHT22;25176;51.060;3.720;2023-03-14T04:25:59;11.60;99.90
39493;DHT22;25176;51.060;3.720;2023-03-14T04:28:24;11.70;99.90
39493;DHT22;25176;51.060;3.720;2023-03-14T04:30:50;11.80;99.90
39493;DHT22;25176;51.060;3.720;2023-03-14T04:33:15;11.80;99.90
39493;DHT22;25176;51.060;3.720;2023-03-14T04:35:46;11.80;99.90
39493;DHT22;25176;51.060;3.720;2023-03-14T04:38:12;11.80;99.90
39493;DHT22;25176;51.060;3.720;2023-03-14T04:40:38;11.80;99.90
39493;DHT22;25176;51.060;3.720;2023-03-14T04:43:05;11.80;99.90
39493;DHT22;25176;51.060;3.720;2023-03-14T04:45:30;11.80;99.90
39493;DHT22;25176;51.060;3.720;2023-03-14T04:47:56;11.80;99.90
39493;DHT22;25176;51.060;3.720;2023-03-14T04:50:22;11.80;99.90
39493;DHT22;25176;51.060;3.720;2023-03-14T04:52:47;11.80;99.90
39493;DHT22;25176;51.060;3.720;2023-03-14T04:55:13;11.80;99.90
39493;DHT22;25176;51.060;3.720;2023-03-14T04:57:39;11.80;99.90
39493;DHT22;25176;51.060;3.720;2023-03-14T05:00:05;11.80;99.90
39493;DHT22;25176;51.060;3.720;2023-03-14T05:02:35;11.80;99.90
39493;DHT22;25176;51.060;3.720;2023-03-14T05:05:00;11.80;99.90
39493;DHT22;25176;51.060;3.720;2023-03-14T05:07:26;11.80;99.90
39493;DHT22;25176;51.060;3.720;2023-03-14T05:09:51;11.80;99.90
39493;DHT22;25176;51.060;3.720;2023-03-14T05:12:19;11.80;99.90
39493;DHT22;25176;51.060;3.720;2023-03-14T05:14:44;11.80;99.90
39493;DHT22;25176;51.060;3.720;2023-03-14T05:17:10;12.00;99.90
39493;DHT22;25176;51.060;3.720;2023-03-14T05:19:36;12.10;99.90
39493;DHT22;25176;51.060;3.720;2023-03-14T05:22:02;12.00;99.90
39493;DHT22;25176;51.060;3.720;2023-03-14T05:24:28;11.90;99.90
39493;DHT22;25176;51.060;3.720;2023-03-14T05:26:54;11.80;99.90
39493;DHT22;25176;51.060;3.720;2023-03-14T05:29:19;11.70;99.90
39493;DHT22;25176;51.060;3.720;2023-03-14T05:31:45;11.70;99.90
39493;DHT22;25176;51.060;3.720;2023-03-14T05:34:10;11.80;99.90
39493;DHT22;25176;51.060;3.720;2023-03-14T05:36:36;11.80;99.90
39493;DHT22;25176;51.060;3.720;2023-03-14T05:39:02;11.90;99.90
39493;DHT22;25176;51.060;3.720;2023-03-14T05:41:27;11.90;99.90
39493;DHT22;25176;51.060;3.720;2023-03-14T05:43:54;11.90;99.90
39493;DHT22;25176;51.060;3.720;2023-03-14T05:46:20;11.60;99.90
39493;DHT22;25176;51.060;3.720;2023-03-14T05:48:45;11.30;99.90
39493;DHT22;25176;51.060;3.720;2023-03-14T05:51:11;11.20;99.90
39493;DHT22;25176;51.060;3.720;2023-03-14T05:53:36;11.10;99.90
39493;DHT22;25176;51.060;3.720;2023-03-14T05:56:02;10.90;99.90
39493;DHT22;25176;51.060;3.720;2023-03-14T05:58:27;10.80;99.90
39493;DHT22;25176;51.060;3.720;2023-03-14T06:00:53;10.70;99.90
39493;DHT22;25176;51.060;3.720;2023-03-14T06:03:19;10.60;99.90
39493;DHT22;25176;51.060;3.720;2023-03-14T06:05:44;10.50;99.90
39493;DHT22;25176;51.060;3.720;2023-03-14T06:08:10;10.40;99.90
39493;DHT22;25176;51.060;3.720;2023-03-14T06:10:36;10.40;99.90
39493;DHT22;25176;51.060;3.720;2023-03-14T06:13:02;10.30;99.90
39493;DHT22;25176;51.060;3.720;2023-03-14T06:15:28;10.30;99.90
39493;DHT22;25176;51.060;3.720;2023-03-14T06:17:55;10.20;99.90
39493;DHT22;25176;51.060;3.720;2023-03-14T06:20:21;10.20;99.90
39493;DHT22;25176;51.060;3.720;2023-03-14T06:22:46;10.30;99.90
39493;DHT22;25176;51.060;3.720;2023-03-14T06:25:12;10.30;99.90
39493;DHT22;25176;51.060;3.720;2023-03-14T06:27:38;10.10;99.90
39493;DHT22;25176;51.060;3.720;2023-03-14T06:30:04;10.10;99.90
39493;DHT22;25176;51.060;3.720;2023-03-14T06:32:30;10.10;99.90
39493;DHT22;25176;51.060;3.720;2023-03-14T06:34:55;10.00;99.90
39493;DHT22;25176;51.060;3.720;2023-03-14T06:37:22;9.90;99.90
39493;DHT22;25176;51.060;3.720;2023-03-14T06:39:48;9.80;99.90
39493;DHT22;25176;51.060;3.720;2023-03-14T06:42:14;9.80;99.90
39493;DHT22;25176;51.060;3.720;2023-03-14T06:44:39;9.80;99.90
39493;DHT22;25176;51.060;3.720;2023-03-14T06:47:05;9.90;99.90
39493;DHT22;25176;51.060;3.720;2023-03-14T06:49:31;9.90;99.90
39493;DHT22;25176;51.060;3.720;2023-03-14T06:51:56;10.10;99.90
39493;DHT22;25176;51.060;3.720;2023-03-14T06:54:22;10.10;99.90
39493;DHT22;25176;51.060;3.720;2023-03-14T06:56:47;10.30;99.90
39493;DHT22;25176;51.060;3.720;2023-03-14T06:59:13;10.20;99.90
39493;DHT22;25176;51.060;3.720;2023-03-14T07:01:38;10.10;99.90
39493;DHT22;25176;51.060;3.720;2023-03-14T07:04:06;10.10;99.90
39493;DHT22;25176;51.060;3.720;2023-03-14T07:06:32;10.00;99.90
39493;DHT22;25176;51.060;3.720;2023-03-14T07:08:58;10.00;99.90
39493;DHT22;25176;51.060;3.720;2023-03-14T07:11:25;10.00;99.90
39493;DHT22;25176;51.060;3.720;2023-03-14T07:13:51;10.00;99.90
39493;DHT22;25176;51.060;3.720;2023-03-14T07:16:17;10.00;99.90
39493;DHT22;25176;51.060;3.720;2023-03-14T07:18:43;10.00;99.90
39493;DHT22;25176;51.060;3.720;2023-03-14T07:21:09;10.00;99.90
39493;DHT22;25176;51.060;3.720;2023-03-14T07:23:35;9.90;99.90
39493;DHT22;25176;51.060;3.720;2023-03-14T07:26:01;10.00;99.90
39493;DHT22;25176;51.060;3.720;2023-03-14T07:28:27;10.00;99.90
39493;DHT22;25176;51.060;3.720;2023-03-14T07:30:54;9.90;99.90
39493;DHT22;25176;51.060;3.720;2023-03-14T07:33:19;10.00;99.90
39493;DHT22;25176;51.060;3.720;2023-03-14T07:35:47;10.00;99.90
39493;DHT22;25176;51.060;3.720;2023-03-14T07:38:22;10.20;99.90
39493;DHT22;25176;51.060;3.720;2023-03-14T07:40:50;10.20;99.90
39493;DHT22;25176;51.060;3.720;2023-03-14T07:43:16;10.20;99.90
39493;DHT22;25176;51.060;3.720;2023-03-14T07:45:47;10.20;99.90
39493;DHT22;25176;51.060;3.720;2023-03-14T07:48:28;10.20;99.90
39493;DHT22;25176;51.060;3.720;2023-03-14T07:51:07;10.20;99.90
39493;DHT22;25176;51.060;3.720;2023-03-14T07:53:33;10.10;99.90
39493;DHT22;25176;51.060;3.720;2023-03-14T07:55:58;9.90;99.90
39493;DHT22;25176;51.060;3.720;2023-03-14T07:58:24;10.00;99.90
39493;DHT22;25176;51.060;3.720;2023-03-14T08:00:51;10.00;99.90
39493;DHT22;25176;51.060;3.720;2023-03-14T08:03:16;9.90;99.90
39493;DHT22;25176;51.060;3.720;2023-03-14T08:05:43;9.90;99.90
39493;DHT22;25176;51.060;3.720;2023-03-14T08:08:09;9.80;99.90
39493;DHT22;25176;51.060;3.720;2023-03-14T08:10:35;9.80;99.90
39493;DHT22;25176;51.060;3.720;2023-03-14T08:13:01;9.90;99.90
39493;DHT22;25176;51.060;3.720;2023-03-14T08:15:36;9.80;99.90
39493;DHT22;25176;51.060;3.720;2023-03-14T08:18:06;9.80;99.90
39493;DHT22;25176;51.060;3.720;2023-03-14T08:20:32;9.70;99.90
39493;DHT22;25176;51.060;3.720;2023-03-14T08:26:20;9.60;99.90
39493;DHT22;25176;51.060;3.720;2023-03-14T08:28:46;9.50;99.90
39493;DHT22;25176;51.060;3.720;2023-03-14T08:31:11;9.60;99.90
39493;DHT22;25176;51.060;3.720;2023-03-14T08:33:37;9.70;99.90
39493;DHT22;25176;51.060;3.720;2023-03-14T08:36:02;9.70;99.90
39493;DHT22;25176;51.060;3.720;2023-03-14T08:42:07;9.60;99.90
39493;DHT22;25176;51.060;3.720;2023-03-14T08:45:06;9.70;99.90
39493;DHT22;25176;51.060;3.720;2023-03-14T08:51:08;10.40;99.90
39493;DHT22;25176;51.060;3.720;2023-03-14T08:53:34;10.50;99.90
39493;DHT22;25176;51.060;3.720;2023-03-14T08:56:00;10.50;99.90
39493;DHT22;25176;51.060;3.720;2023-03-14T08:58:25;10.50;99.90
39493;DHT22;25176;51.060;3.720;2023-03-14T09:00:51;10.60;99.90
39493;DHT22;25176;51.060;3.720;2023-03-14T09:03:17;10.60;99.90
39493;DHT22;25176;51.060;3.720;2023-03-14T09:05:43;10.30;99.90
39493;DHT22;25176;51.060;3.720;2023-03-14T09:08:08;10.30;99.90
39493;DHT22;25176;51.060;3.720;2023-03-14T09:10:34;10.20;99.90
39493;DHT22;25176;51.060;3.720;2023-03-14T09:13:00;10.10;99.90
39493;DHT22;25176;51.060;3.720;2023-03-14T09:15:26;10.20;99.90
39493;DHT22;25176;51.060;3.720;2023-03-14T09:17:51;10.30;99.90
39493;DHT22;25176;51.060;3.720;2023-03-14T09:20:17;10.20;99.90
39493;DHT22;25176;51.060;3.720;2023-03-14T09:22:43;10.20;99.90
39493;DHT22;25176;51.060;3.720;2023-03-14T09:25:09;10.10;99.90
39493;DHT22;25176;51.060;3.720;2023-03-14T09:27:35;10.10;99.90
39493;DHT22;25176;51.060;3.720;2023-03-14T09:30:01;10.10;99.90
39493;DHT22;25176;51.060;3.720;2023-03-14T09:32:27;10.00;99.90
39493;DHT22;25176;51.060;3.720;2023-03-14T09:34:52;9.90;99.90
39493;DHT22;25176;51.060;3.720;2023-03-14T09:37:18;9.90;99.90
39493;DHT22;25176;51.060;3.720;2023-03-14T09:39:45;9.80;99.90
39493;DHT22;25176;51.060;3.720;2023-03-14T09:42:16;9.70;99.90
39493;DHT22;25176;51.060;3.720;2023-03-14T09:44:57;9.70;99.90
39493;DHT22;25176;51.060;3.720;2023-03-14T09:47:25;9.60;99.90
39493;DHT22;25176;51.060;3.720;2023-03-14T09:49:52;9.50;99.90
39493;DHT22;25176;51.060;3.720;2023-03-14T09:52:31;9.50;99.90
39493;DHT22;25176;51.060;3.720;2023-03-14T09:55:01;9.40;99.90
39493;DHT22;25176;51.060;3.720;2023-03-14T09:57:28;9.30;99.90
39493;DHT22;25176;51.060;3.720;2023-03-14T10:00:00;9.30;99.90
39493;DHT22;25176;51.060;3.720;2023-03-14T10:02:36;9.20;99.90
39493;DHT22;25176;51.060;3.720;2023-03-14T10:05:05;9.10;99.90
39493;DHT22;25176;51.060;3.720;2023-03-14T10:07:32;9.10;99.90
39493;DHT22;25176;51.060;3.720;2023-03-14T10:09:58;9.00;99.90
39493;DHT22;25176;51.060;3.720;2023-03-14T10:12:35;9.00;99.90
39493;DHT22;25176;51.060;3.720;2023-03-14T10:15:11;9.10;99.90
39493;DHT22;25176;51.060;3.720;2023-03-14T10:17:47;9.30;99.90
39493;DHT22;25176;51.060;3.720;2023-03-14T10:20:37;9.50;99.90
39493;DHT22;25176;51.060;3.720;2023-03-14T10:23:26;9.60;99.90
39493;DHT22;25176;51.060;3.720;2023-03-14T10:26:03;9.40;99.90
39493;DHT22;25176;51.060;3.720;2023-03-14T10:28:32;9.40;99.90
39493;DHT22;25176;51.060;3.720;2023-03-14T10:30:59;9.40;99.90
39493;DHT22;25176;51.060;3.720;2023-03-14T10:33:33;9.20;99.90
39493;DHT22;25176;51.060;3.720;2023-03-14T10:36:01;9.20;99.90
39493;DHT22;25176;51.060;3.720;2023-03-14T10:38:33;9.20;99.90
39493;DHT22;25176;51.060;3.720;2023-03-14T10:40:59;9.40;99.90
39493;DHT22;25176;51.060;3.720;2023-03-14T10:43:35;9.30;99.90
39493;DHT22;25176;51.060;3.720;2023-03-14T10:46:15;9.40;99.90
39493;DHT22;25176;51.060;3.720;2023-03-14T10:48:42;9.40;99.90
39493;DHT22;25176;51.060;3.720;2023-03-14T10:51:17;9.50;99.90
39493;DHT22;25176;51.060;3.720;2023-03-14T10:56:15;9.30;99.90
39493;DHT22;25176;51.060;3.720;2023-03-14T10:58:43;9.30;99.90
39493;DHT22;25176;51.060;3.720;2023-03-14T11:06:48;9.70;99.90
39493;DHT22;25176;51.060;3.720;2023-03-14T11:11:47;10.00;99.90
39493;DHT22;25176;51.060;3.720;2023-03-14T11:14:43;10.40;99.90
39493;DHT22;25176;51.060;3.720;2023-03-14T11:17:44;10.50;99.90
39493;DHT22;25176;51.060;3.720;2023-03-14T11:23:13;10.80;99.90
39493;DHT22;25176;51.060;3.720;2023-03-14T11:25:54;11.10;99.90
39493;DHT22;25176;51.060;3.720;2023-03-14T11:28:33;11.40;99.90
39493;DHT22;25176;51.060;3.720;2023-03-14T11:31:11;11.30;99.90
39493;DHT22;25176;51.060;3.720;2023-03-14T11:33:50;11.20;99.90
39493;DHT22;25176;51.060;3.720;2023-03-14T11:36:32;11.10;99.90
39493;DHT22;25176;51.060;3.720;2023-03-14T11:39:02;11.00;99.90
39493;DHT22;25176;51.060;3.720;2023-03-14T11:41:33;10.90;99.90
39493;DHT22;25176;51.060;3.720;2023-03-14T11:44:04;10.60;99.90
39493;DHT22;25176;51.060;3.720;2023-03-14T11:46:39;10.70;99.90
39493;DHT22;25176;51.060;3.720;2023-03-14T11:51:54;10.10;99.90
39493;DHT22;25176;51.060;3.720;2023-03-14T11:57:19;9.90;99.90
39493;DHT22;25176;51.060;3.720;2023-03-14T12:02:53;9.80;99.90
39493;DHT22;25176;51.060;3.720;2023-03-14T12:05:31;9.80;99.90
39493;DHT22;25176;51.060;3.720;2023-03-14T12:11:23;10.10;99.90
39493;DHT22;25176;51.060;3.720;2023-03-14T12:13:30;10.20;99.90
39493;DHT22;25176;51.060;3.720;2023-03-14T12:16:03;9.80;99.90
39493;DHT22;25176;51.060;3.720;2023-03-14T12:18:36;9.60;99.90
39493;DHT22;25176;51.060;3.720;2023-03-14T12:21:11;9.40;99.90
39493;DHT22;25176;51.060;3.720;2023-03-14T12:23:43;9.30;99.90
39493;DHT22;25176;51.060;3.720;2023-03-14T12:26:19;9.20;99.90
39493;DHT22;25176;51.060;3.720;2023-03-14T12:28:52;9.30;99.90
39493;DHT22;25176;51.060;3.720;2023-03-14T12:31:48;9.60;99.90
39493;DHT22;25176;51.060;3.720;2023-03-14T12:37:05;9.90;99.90
39493;DHT22;25176;51.060;3.720;2023-03-14T12:42:35;10.00;99.90
39493;DHT22;25176;51.060;3.720;2023-03-14T12:45:41;9.90;99.90
39493;DHT22;25176;51.060;3.720;2023-03-14T12:51:12;9.00;99.90
39493;DHT22;25176;51.060;3.720;2023-03-14T12:59:46;9.00;99.90
39493;DHT22;25176;51.060;3.720;2023-03-14T13:02:26;8.70;99.90
39493;DHT22;25176;51.060;3.720;2023-03-14T13:05:08;8.50;99.90
39493;DHT22;25176;51.060;3.720;2023-03-14T13:10:41;8.70;99.90
39493;DHT22;25176;51.060;3.720;2023-03-14T13:13:24;8.90;99.90
39493;DHT22;25176;51.060;3.720;2023-03-14T13:15:58;9.20;99.90
39493;DHT22;25176;51.060;3.720;2023-03-14T13:18:40;9.40;99.50
39493;DHT22;25176;51.060;3.720;2023-03-14T13:24:02;9.30;99.90
39493;DHT22;25176;51.060;3.720;2023-03-14T13:26:54;9.40;99.80
39493;DHT22;25176;51.060;3.720;2023-03-14T13:29:38;9.20;99.20
39493;DHT22;25176;51.060;3.720;2023-03-14T13:32:31;9.20;99.50
39493;DHT22;25176;51.060;3.720;2023-03-14T13:35:25;9.40;98.40
39493;DHT22;25176;51.060;3.720;2023-03-14T13:38:03;9.50;98.30
39493;DHT22;25176;51.060;3.720;2023-03-14T13:40:33;9.90;97.70
39493;DHT22;25176;51.060;3.720;2023-03-14T13:43:06;9.90;97.40
39493;DHT22;25176;51.060;3.720;2023-03-14T13:45:43;9.80;96.30
39493;DHT22;25176;51.060;3.720;2023-03-14T13:48:11;9.80;96.70
39493;DHT22;25176;51.060;3.720;2023-03-14T13:50:37;9.60;94.90
39493;DHT22;25176;51.060;3.720;2023-03-14T13:53:03;9.20;93.10
39493;DHT22;25176;51.060;3.720;2023-03-14T13:55:29;9.20;93.30
39493;DHT22;25176;51.060;3.720;2023-03-14T13:57:55;9.10;93.90
39493;DHT22;25176;51.060;3.720;2023-03-14T14:00:26;8.80;93.60
39493;DHT22;25176;51.060;3.720;2023-03-14T14:02:57;8.80;94.60
39493;DHT22;25176;51.060;3.720;2023-03-14T14:05:26;8.80;93.40
39493;DHT22;25176;51.060;3.720;2023-03-14T14:07:53;8.60;93.20
39493;DHT22;25176;51.060;3.720;2023-03-14T14:10:20;8.60;93.90
39493;DHT22;25176;51.060;3.720;2023-03-14T14:12:57;8.90;93.70
39493;DHT22;25176;51.060;3.720;2023-03-14T14:15:33;9.20;94.10
39493;DHT22;25176;51.060;3.720;2023-03-14T14:18:04;9.30;93.10
39493;DHT22;25176;51.060;3.720;2023-03-14T14:23:04;9.30;90.70
39493;DHT22;25176;51.060;3.720;2023-03-14T14:25:30;9.50;90.20
39493;DHT22;25176;51.060;3.720;2023-03-14T14:27:59;9.70;90.80
39493;DHT22;25176;51.060;3.720;2023-03-14T14:30:39;9.80;88.80
39493;DHT22;25176;51.060;3.720;2023-03-14T14:33:21;9.80;88.60
39493;DHT22;25176;51.060;3.720;2023-03-14T14:35:58;9.70;86.10
39493;DHT22;25176;51.060;3.720;2023-03-14T14:38:25;9.50;82.40
39493;DHT22;25176;51.060;3.720;2023-03-14T14:40:54;9.50;81.70
39493;DHT22;25176;51.060;3.720;2023-03-14T14:43:23;9.70;83.60
39493;DHT22;25176;51.060;3.720;2023-03-14T14:45:54;9.40;80.90
39493;DHT22;25176;51.060;3.720;2023-03-14T14:48:23;9.30;79.70
39493;DHT22;25176;51.060;3.720;2023-03-14T14:51:01;9.50;81.50
39493;DHT22;25176;51.060;3.720;2023-03-14T14:53:42;9.30;82.80
39493;DHT22;25176;51.060;3.720;2023-03-14T14:56:26;9.50;82.50
39493;DHT22;25176;51.060;3.720;2023-03-14T14:59:00;9.70;81.00
39493;DHT22;25176;51.060;3.720;2023-03-14T15:01:39;9.60;83.20
39493;DHT22;25176;51.060;3.720;2023-03-14T15:04:13;9.80;83.00
39493;DHT22;25176;51.060;3.720;2023-03-14T15:06:44;9.90;83.20
39493;DHT22;25176;51.060;3.720;2023-03-14T15:09:11;9.90;83.60
39493;DHT22;25176;51.060;3.720;2023-03-14T15:11:37;10.00;83.90
39493;DHT22;25176;51.060;3.720;2023-03-14T15:14:03;10.10;84.00
39493;DHT22;25176;51.060;3.720;2023-03-14T15:16:30;10.10;84.50
39493;DHT22;25176;51.060;3.720;2023-03-14T15:19:14;10.10;85.00
39493;DHT22;25176;51.060;3.720;2023-03-14T15:21:41;10.20;85.30
39493;DHT22;25176;51.060;3.720;2023-03-14T15:24:09;10.20;86.30
39493;DHT22;25176;51.060;3.720;2023-03-14T15:26:35;10.30;86.40
39493;DHT22;25176;51.060;3.720;2023-03-14T15:29:00;10.30;87.30
39493;DHT22;25176;51.060;3.720;2023-03-14T15:31:26;10.10;86.20
39493;DHT22;25176;51.060;3.720;2023-03-14T15:33:52;10.20;86.50
39493;DHT22;25176;51.060;3.720;2023-03-14T15:36:26;10.00;86.40
39493;DHT22;25176;51.060;3.720;2023-03-14T15:38:53;9.90;86.00
39493;DHT22;25176;51.060;3.720;2023-03-14T15:41:19;9.90;86.60
39493;DHT22;25176;51.060;3.720;2023-03-14T15:43:46;10.00;86.00
39493;DHT22;25176;51.060;3.720;2023-03-14T15:46:11;9.90;86.10
39493;DHT22;25176;51.060;3.720;2023-03-14T15:48:38;10.10;86.10
39493;DHT22;25176;51.060;3.720;2023-03-14T15:51:03;10.10;85.90
39493;DHT22;25176;51.060;3.720;2023-03-14T15:53:29;10.40;86.40
39493;DHT22;25176;51.060;3.720;2023-03-14T15:55:55;10.50;86.10
39493;DHT22;25176;51.060;3.720;2023-03-14T15:58:21;10.40;85.40
39493;DHT22;25176;51.060;3.720;2023-03-14T16:00:47;10.60;86.00
39493;DHT22;25176;51.060;3.720;2023-03-14T16:03:13;10.60;85.60
39493;DHT22;25176;51.060;3.720;2023-03-14T16:05:41;10.60;84.90
39493;DHT22;25176;51.060;3.720;2023-03-14T16:08:07;10.40;83.10
39493;DHT22;25176;51.060;3.720;2023-03-14T16:10:33;10.30;82.40
39493;DHT22;25176;51.060;3.720;2023-03-14T16:12:59;10.10;81.80
39493;DHT22;25176;51.060;3.720;2023-03-14T16:15:25;10.20;82.60
39493;DHT22;25176;51.060;3.720;2023-03-14T16:17:55;9.90;82.10
39493;DHT22;25176;51.060;3.720;2023-03-14T16:20:22;9.60;82.50
39493;DHT22;25176;51.060;3.720;2023-03-14T16:22:49;9.50;83.40
39493;DHT22;25176;51.060;3.720;2023-03-14T16:25:15;9.50;83.50
39493;DHT22;25176;51.060;3.720;2023-03-14T16:27:43;9.50;83.10
39493;DHT22;25176;51.060;3.720;2023-03-14T16:30:09;9.50;84.00
39493;DHT22;25176;51.060;3.720;2023-03-14T16:32:36;9.70;82.50
39493;DHT22;25176;51.060;3.720;2023-03-14T16:35:01;9.80;83.10
39493;DHT22;25176;51.060;3.720;2023-03-14T16:37:27;9.90;83.20
39493;DHT22;25176;51.060;3.720;2023-03-14T16:39:53;9.90;83.20
39493;DHT22;25176;51.060;3.720;2023-03-14T16:42:19;10.00;82.60
39493;DHT22;25176;51.060;3.720;2023-03-14T16:44:45;10.00;82.70
39493;DHT22;25176;51.060;3.720;2023-03-14T16:47:11;10.00;81.90
39493;DHT22;25176;51.060;3.720;2023-03-14T16:49:37;10.10;81.40